Time;durP1;ratioP1;P1;durP2;ratioP2;P2;SDS_P1;SDS_P2;PMS_P1;PMS_P2;Temp;Humidity;BMP_temperature;BMP_pressure;BME280_temperature;BME280_humidity;BME280_pressure;Samples;Min_cycle;Max_cycle;Signal;HPM_P1;HPM_P2
2024/04/14 00:00:24;;;;;;;;;;;;;;;;;;2205533;67;1965;-19
2024/04/14 00:02:54;;;;;;;;;;;;;;;;;;2208505;59;2476;-19
2024/04/14 00:05:26;;;;;;;;;;;;;;;;;;2208423;59;2003;-19
2024/04/14 00:07:56;;;;;;;;;;;;;;;;;;2208689;59;1720;-17
2024/04/14 00:10:27;;;;;;;;;;;;;;;;;;2208110;59;1988;-17
2024/04/14 00:12:57;;;;;;;;;;;;;;;;;;2209518;67;1790;-17
2024/04/14 00:15:27;;;;;;;;;;;;;;;;;;2205089;67;2370;-17
2024/04/14 00:17:58;;;;;;;;;;;;;;;;;;2207918;66;1923;-17
2024/04/14 00:20:28;;;;;;;;;;;;;;;;;;2208657;66;1773;-17
2024/04/14 00:22:59;;;;;;;;;;;;;;;;;;2204760;59;1963;-16
2024/04/14 00:25:29;;;;;;;;;;;;;;;;;;2208932;67;2012;-17
2024/04/14 00:27:59;;;;;;;;;;;;;;;;;;2208340;59;1856;-17
2024/04/14 00:30:30;;;;;;;;;;;;;;;;;;2202959;66;1870;-17
2024/04/14 00:33:00;;;;;;;;;;;;;;;;;;2209127;59;2021;-17
2024/04/14 00:35:30;;;;;;;;;;;;;;;;;;2208843;59;1838;-17
2024/04/14 00:38:01;;;;;;;;;;;;;;;;;;2208089;66;1859;-17
2024/04/14 00:40:31;;;;;;;;;;;;;;;;;;2208346;67;1827;-17
2024/04/14 00:43:02;;;;;;;;;;;;;;;;;;2202228;67;1845;-17
2024/04/14 00:45:32;;;;;;;;;;;;;;;;;;2208018;67;2101;-17
2024/04/14 00:48:03;;;;;;;;;;;;;;;;;;2208785;59;1765;-17
2024/04/14 00:50:34;;;;;;;;;;;;;;;;;;2208792;66;2447;-17
2024/04/14 00:53:04;;;;;;;;;;;;;;;;;;2208362;59;1984;-17
2024/04/14 00:55:36;;;;;;;;;;;;;;;;;;2205473;67;1876;-17
2024/04/14 00:58:06;;;;;;;;;;;;;;;;;;2206608;67;1996;-17
2024/04/14 01:00:37;;;;;;;;;;;;;;;;;;2209510;59;1898;-16
2024/04/14 01:03:07;;;;;;;;;;;;;;;;;;2208771;66;1731;-17
2024/04/14 01:05:37;;;;;;;;;;;;;;;;;;2206253;67;1906;-17
2024/04/14 01:08:08;;;;;;;;;;;;;;;;;;2206548;66;2328;-16
2024/04/14 01:10:40;;;;;;;;;;;;;;;;;;2205257;67;1877;-17
2024/04/14 01:13:10;;;;;;;;;;;;;;;;;;2209856;59;2502;-16
2024/04/14 01:15:40;;;;;;;;;;;;;;;;;;2209654;66;1812;-17
2024/04/14 01:18:10;;;;;;;;;;;;;;;;;;2206897;59;2017;-17
2024/04/14 01:20:41;;;;;;;;;;;;;;;;;;2205667;67;1889;-17
2024/04/14 01:23:12;;;;;;;;;;;;;;;;;;2206159;59;2053;-17
2024/04/14 01:25:42;;;;;;;;;;;;;;;;;;2209681;59;1987;-17
2024/04/14 01:28:14;;;;;;;;;;;;;;;;;;2210116;59;1895;-17
2024/04/14 01:30:44;;;;;;;;;;;;;;;;;;2210188;66;1847;-17
2024/04/14 01:33:15;;;;;;;;;;;;;;;;;;2206833;59;1808;-17
2024/04/14 01:35:45;;;;;;;;;;;;;;;;;;2207601;59;2691;-17
2024/04/14 01:38:16;;;;;;;;;;;;;;;;;;2205772;67;2344;-16
2024/04/14 01:40:46;;;;;;;;;;;;;;;;;;2209555;66;1812;-17
2024/04/14 01:43:16;;;;;;;;;;;;;;;;;;2209152;66;1847;-16
2024/04/14 01:45:47;;;;;;;;;;;;;;;;;;2207883;59;2995;-17
2024/04/14 01:48:17;;;;;;;;;;;;;;;;;;2209258;66;1909;-16
2024/04/14 01:50:50;;;;;;;;;;;;;;;;;;2209755;59;1798;-17
2024/04/14 01:53:21;;;;;;;;;;;;;;;;;;2208646;66;1783;-16
2024/04/14 01:55:51;;;;;;;;;;;;;;;;;;2207548;67;1883;-17
2024/04/14 01:58:21;;;;;;;;;;;;;;;;;;2208605;59;1822;-17
2024/04/14 02:00:52;;;;;;;;;;;;;;;;;;2210635;59;2388;-17
2024/04/14 02:03:22;;;;;;;;;;;;;;;;;;2205127;67;2029;-17
2024/04/14 02:05:59;;;;;;;;;;;;;;;;;;2206038;59;1996;-17
2024/04/14 02:08:29;;;;;;;;;;;;;;;;;;2208618;67;1788;-17
2024/04/14 02:11:00;;;;;;;;;;;;;;;;;;2209821;59;2512;-17
2024/04/14 02:13:30;;;;;;;;;;;;;;;;;;2208143;67;1908;-17
2024/04/14 02:16:01;;;;;;;;;;;;;;;;;;2207270;60;2016;-17
2024/04/14 02:18:32;;;;;;;;;;;;;;;;;;2202397;66;2028;-16
2024/04/14 02:21:02;;;;;;;;;;;;;;;;;;2207528;67;1901;-17
2024/04/14 02:23:33;;;;;;;;;;;;;;;;;;2208298;66;2094;-17
2024/04/14 02:26:03;;;;;;;;;;;;;;;;;;2207520;59;2089;-17
2024/04/14 02:28:33;;;;;;;;;;;;;;;;;;2205050;59;1836;-17
2024/04/14 02:31:04;;;;;;;;;;;;;;;;;;2210140;67;2224;-16
2024/04/14 02:33:34;;;;;;;;;;;;;;;;;;2205294;59;2030;-17
2024/04/14 02:36:04;;;;;;;;;;;;;;;;;;2209777;59;1899;-17
2024/04/14 02:38:35;;;;;;;;;;;;;;;;;;2207830;66;1770;-17
2024/04/14 02:41:05;;;;;;;;;;;;;;;;;;2207055;67;2144;-17
2024/04/14 02:43:35;;;;;;;;;;;;;;;;;;2208928;67;2441;-17
2024/04/14 02:46:06;;;;;;;;;;;;;;;;;;2208572;59;1909;-17
2024/04/14 02:48:36;;;;;;;;;;;;;;;;;;2208432;67;1854;-17
2024/04/14 02:51:06;;;;;;;;;;;;;;;;;;2209004;67;2463;-17
2024/04/14 02:53:37;;;;;;;;;;;;;;;;;;2208512;59;1991;-17
2024/04/14 02:56:07;;;;;;;;;;;;;;;;;;2207169;59;2530;-17
2024/04/14 02:58:37;;;;;;;;;;;;;;;;;;2206571;67;2004;-17
2024/04/14 03:01:10;;;;;;;;;;;;;;;;;;2208104;59;2336;-17
2024/04/14 03:03:43;;;;;;;;;;;;;;;;;;2209221;66;1792;-17
2024/04/14 03:06:14;;;;;;;;;;;;;;;;;;2206451;67;1936;-17
2024/04/14 03:08:45;;;;;;;;;;;;;;;;;;2208768;66;1804;-17
2024/04/14 03:11:15;;;;;;;;;;;;;;;;;;2209781;59;2496;-17
2024/04/14 03:13:45;;;;;;;;;;;;;;;;;;2208457;66;2104;-17
2024/04/14 03:16:16;;;;;;;;;;;;;;;;;;2205507;67;2520;-17
2024/04/14 03:18:49;;;;;;;;;;;;;;;;;;2205055;59;1828;-17
2024/04/14 03:21:19;;;;;;;;;;;;;;;;;;2209307;67;2512;-17
2024/04/14 03:23:50;;;;;;;;;;;;;;;;;;2202362;66;1906;-17
2024/04/14 03:26:20;;;;;;;;;;;;;;;;;;2209536;66;1941;-17
2024/04/14 03:28:50;;;;;;;;;;;;;;;;;;2209503;59;1832;-16
2024/04/14 03:31:21;;;;;;;;;;;;;;;;;;2205727;67;2153;-17
2024/04/14 03:33:54;;;;;;;;;;;;;;;;;;2206431;59;2532;-17
2024/04/14 03:36:24;;;;;;;;;;;;;;;;;;2205591;59;1801;-17
2024/04/14 03:38:54;;;;;;;;;;;;;;;;;;2207357;67;2195;-17
2024/04/14 03:41:25;;;;;;;;;;;;;;;;;;2208650;67;2168;-17
2024/04/14 03:43:55;;;;;;;;;;;;;;;;;;2207516;67;1786;-17
2024/04/14 03:46:25;;;;;;;;;;;;;;;;;;2205356;59;2249;-17
2024/04/14 03:48:56;;;;;;;;;;;;;;;;;;2206337;59;1941;-17
2024/04/14 03:51:26;;;;;;;;;;;;;;;;;;2206004;67;1970;-17
2024/04/14 03:53:56;;;;;;;;;;;;;;;;;;2206753;59;2459;-17
2024/04/14 03:56:26;;;;;;;;;;;;;;;;;;2206351;67;1745;-17
2024/04/14 03:58:57;;;;;;;;;;;;;;;;;;2207678;67;2337;-17
2024/04/14 04:01:27;;;;;;;;;;;;;;;;;;2209243;59;1774;-17
2024/04/14 04:03:58;;;;;;;;;;;;;;;;;;2209926;66;1880;-17
2024/04/14 04:06:28;;;;;;;;;;;;;;;;;;2205807;59;1963;-16
2024/04/14 04:08:58;;;;;;;;;;;;;;;;;;2209469;67;1931;-17
2024/04/14 04:11:29;;;;;;;;;;;;;;;;;;2208805;59;2122;-17
2024/04/14 04:13:59;;;;;;;;;;;;;;;;;;2209303;67;2397;-17
2024/04/14 04:16:29;;;;;;;;;;;;;;;;;;2208548;59;1840;-16
2024/04/14 04:19:00;;;;;;;;;;;;;;;;;;2209346;67;2000;-17
2024/04/14 04:21:31;;;;;;;;;;;;;;;;;;2202742;66;1922;-16
2024/04/14 04:24:01;;;;;;;;;;;;;;;;;;2209970;59;2471;-17
2024/04/14 04:26:31;;;;;;;;;;;;;;;;;;2204429;59;2588;-27
2024/04/14 04:29:02;;;;;;;;;;;;;;;;;;2209788;59;1954;-16
2024/04/14 04:31:32;;;;;;;;;;;;;;;;;;2206091;59;1973;-16
2024/04/14 04:34:03;;;;;;;;;;;;;;;;;;2209587;59;1781;-16
2024/04/14 04:36:33;;;;;;;;;;;;;;;;;;2207313;59;1845;-17
2024/04/14 04:39:03;;;;;;;;;;;;;;;;;;2209354;67;2454;-16
2024/04/14 04:41:33;;;;;;;;;;;;;;;;;;2205107;60;2319;-16
2024/04/14 04:44:05;;;;;;;;;;;;;;;;;;2209674;66;1927;-16
2024/04/14 04:46:35;;;;;;;;;;;;;;;;;;2207997;66;1930;-17
2024/04/14 04:49:05;;;;;;;;;;;;;;;;;;2208234;66;1937;-16
2024/04/14 04:51:36;;;;;;;;;;;;;;;;;;2207432;59;2002;-17
2024/04/14 04:54:06;;;;;;;;;;;;;;;;;;2210181;59;1776;-16
2024/04/14 04:56:37;;;;;;;;;;;;;;;;;;2208211;66;1878;-17
2024/04/14 04:59:07;;;;;;;;;;;;;;;;;;2208940;67;1944;-16
2024/04/14 05:01:37;;;;;;;;;;;;;;;;;;2208107;59;2112;-17
2024/04/14 05:04:08;;;;;;;;;;;;;;;;;;2209330;66;1873;-16
2024/04/14 05:06:38;;;;;;;;;;;;;;;;;;2208623;67;1941;-16
2024/04/14 05:09:09;;;;;;;;;;;;;;;;;;2205840;67;1899;-16
2024/04/14 05:11:39;;;;;;;;;;;;;;;;;;2207894;59;1972;-16
2024/04/14 05:14:09;;;;;;;;;;;;;;;;;;2209679;59;2047;-16
2024/04/14 05:16:39;;;;;;;;;;;;;;;;;;2207303;67;1838;-16
2024/04/14 05:19:10;;;;;;;;;;;;;;;;;;2209230;66;2528;-17
2024/04/14 05:21:40;;;;;;;;;;;;;;;;;;2204601;66;1918;-17
2024/04/14 05:24:11;;;;;;;;;;;;;;;;;;2206425;59;1933;-17
2024/04/14 05:26:41;;;;;;;;;;;;;;;;;;2208098;66;1796;-17
2024/04/14 05:29:11;;;;;;;;;;;;;;;;;;2208979;59;1871;-17
2024/04/14 05:31:42;;;;;;;;;;;;;;;;;;2205185;59;1764;-17
2024/04/14 05:34:12;;;;;;;;;;;;;;;;;;2206079;59;2251;-17
2024/04/14 05:36:45;;;;;;;;;;;;;;;;;;2208564;59;1720;-17
2024/04/14 05:39:16;;;;;;;;;;;;;;;;;;2208178;59;1730;-17
2024/04/14 05:41:46;;;;;;;;;;;;;;;;;;2208537;59;1913;-17
2024/04/14 05:44:16;;;;;;;;;;;;;;;;;;2209078;66;1953;-17
2024/04/14 05:46:47;;;;;;;;;;;;;;;;;;2208700;66;2483;-17
2024/04/14 05:49:20;;;;;;;;;;;;;;;;;;2208933;66;1841;-16
2024/04/14 05:51:50;;;;;;;;;;;;;;;;;;2209252;59;1732;-17
2024/04/14 05:54:21;;;;;;;;;;;;;;;;;;2209570;59;1956;-17
2024/04/14 05:56:51;;;;;;;;;;;;;;;;;;2209941;66;1700;-17
2024/04/14 05:59:21;;;;;;;;;;;;;;;;;;2208363;66;2430;-16
2024/04/14 06:01:51;;;;;;;;;;;;;;;;;;2209081;59;2700;-17
2024/04/14 06:04:22;;;;;;;;;;;;;;;;;;2209401;59;1994;-17
2024/04/14 06:06:52;;;;;;;;;;;;;;;;;;2205852;59;2331;-17
2024/04/14 06:09:23;;;;;;;;;;;;;;;;;;2208821;59;2565;-17
2024/04/14 06:11:53;;;;;;;;;;;;;;;;;;2205467;67;1794;-17
2024/04/14 06:14:23;;;;;;;;;;;;;;;;;;2209048;66;1815;-21
2024/04/14 06:16:54;;;;;;;;;;;;;;;;;;2204566;67;1798;-17
2024/04/14 06:19:24;;;;;;;;;;;;;;;;;;2208996;63;1926;-17
2024/04/14 06:21:54;;;;;;;;;;;;;;;;;;2206089;67;1755;-17
2024/04/14 06:24:24;;;;;;;;;;;;;;;;;;2209369;59;1957;-17
2024/04/14 06:26:55;;;;;;;;;;;;;;;;;;2208847;59;1893;-17
2024/04/14 06:29:25;;;;;;;;;;;;;;;;;;2205376;59;1842;-17
2024/04/14 06:31:55;;;;;;;;;;;;;;;;;;2205394;59;2254;-17
2024/04/14 06:34:26;;;;;;;;;;;;;;;;;;2204375;59;2752;-17
2024/04/14 06:36:56;;;;;;;;;;;;;;;;;;2203044;59;2448;-17
2024/04/14 06:39:26;;;;;;;;;;;;;;;;;;2207204;59;2413;-17
2024/04/14 06:41:56;;;;;;;;;;;;;;;;;;2205672;59;2651;-17
2024/04/14 06:44:27;;;;;;;;;;;;;;;;;;2208339;67;2754;-17
2024/04/14 06:46:57;;;;;;;;;;;;;;;;;;2208539;59;2737;-17
2024/04/14 06:49:28;;;;;;;;;;;;;;;;;;2208792;67;2134;-17
2024/04/14 06:51:58;;;;;;;;;;;;;;;;;;2206232;66;2157;-18
2024/04/14 06:54:29;;;;;;;;;;;;;;;;;;2205937;67;2671;-17
2024/04/14 06:56:59;;;;;;;;;;;;;;;;;;2208365;66;2049;-18
2024/04/14 06:59:29;;;;;;;;;;;;;;;;;;2209486;59;1747;-17
2024/04/14 07:02:00;;;;;;;;;;;;;;;;;;2205964;59;1964;-17
2024/04/14 07:04:30;;;;;;;;;;;;;;;;;;2209286;66;2016;-17
2024/04/14 07:07:01;;;;;;;;;;;;;;;;;;2204360;67;2286;-18
2024/04/14 07:09:31;;;;;;;;;;;;;;;;;;2206488;59;1887;-17
2024/04/14 07:12:02;;;;;;;;;;;;;;;;;;2205889;67;1811;-17
2024/04/14 07:14:33;;;;;;;;;;;;;;;;;;2208904;66;2716;-17
2024/04/14 07:17:04;;;;;;;;;;;;;;;;;;2209954;64;1893;-17
2024/04/14 07:19:34;;;;;;;;;;;;;;;;;;2208144;66;1825;-17
2024/04/14 07:22:04;;;;;;;;;;;;;;;;;;2209340;67;1873;-18
2024/04/14 07:24:34;;;;;;;;;;;;;;;;;;2208592;58;1947;-17
2024/04/14 07:27:06;;;;;;;;;;;;;;;;;;2209330;59;1836;-17
2024/04/14 07:29:37;;;;;;;;;;;;;;;;;;2208232;67;1912;-18
2024/04/14 07:32:07;;;;;;;;;;;;;;;;;;2208833;59;2015;-18
2024/04/14 07:34:37;;;;;;;;;;;;;;;;;;2205120;59;2140;-18
2024/04/14 07:37:07;;;;;;;;;;;;;;;;;;2208337;67;1800;-18
2024/04/14 07:39:38;;;;;;;;;;;;;;;;;;2207468;59;1790;-18
2024/04/14 07:42:08;;;;;;;;;;;;;;;;;;2208860;67;2589;-18
2024/04/14 07:44:38;;;;;;;;;;;;;;;;;;2208711;66;1945;-18
2024/04/14 07:47:09;;;;;;;;;;;;;;;;;;2209163;66;1859;-18
2024/04/14 07:49:41;;;;;;;;;;;;;;;;;;2202535;59;2346;-18
2024/04/14 07:52:12;;;;;;;;;;;;;;;;;;2204835;67;1728;-18
2024/04/14 07:54:42;;;;;;;;;;;;;;;;;;2204500;59;2478;-18
2024/04/14 07:57:12;;;;;;;;;;;;;;;;;;2208435;66;3049;-18
2024/04/14 07:59:43;;;;;;;;;;;;;;;;;;2206557;66;1766;-18
2024/04/14 08:02:13;;;;;;;;;;;;;;;;;;2208358;59;1842;-18
2024/04/14 08:04:43;;;;;;;;;;;;;;;;;;2206359;59;1908;-18
2024/04/14 08:07:13;;;;;;;;;;;;;;;;;;2207881;66;2458;-18
2024/04/14 08:09:44;;;;;;;;;;;;;;;;;;2205493;67;1865;-18
2024/04/14 08:12:14;;;;;;;;;;;;;;;;;;2202481;59;2458;-18
2024/04/14 08:14:44;;;;;;;;;;;;;;;;;;2204497;66;1861;-18
2024/04/14 08:17:14;;;;;;;;;;;;;;;;;;2208535;66;2413;-18
2024/04/14 08:19:45;;;;;;;;;;;;;;;;;;2204634;59;2246;-18
2024/04/14 08:22:15;;;;;;;;;;;;;;;;;;2208386;59;2090;-18
2024/04/14 08:24:45;;;;;;;;;;;;;;;;;;2206897;58;1985;-18
2024/04/14 08:27:15;;;;;;;;;;;;;;;;;;2207905;59;2016;-18
2024/04/14 08:29:46;;;;;;;;;;;;;;;;;;2206842;66;2505;-18
2024/04/14 08:32:16;;;;;;;;;;;;;;;;;;2208693;59;1832;-18
2024/04/14 08:34:47;;;;;;;;;;;;;;;;;;2202027;59;3031;-18
2024/04/14 08:37:17;;;;;;;;;;;;;;;;;;2204986;67;2084;-18
2024/04/14 08:39:47;;;;;;;;;;;;;;;;;;2206016;59;1906;-18
2024/04/14 08:42:18;;;;;;;;;;;;;;;;;;2207856;67;1894;-19
2024/04/14 08:44:52;;;;;;;;;;;;;;;;;;2202336;59;2263;-18
2024/04/14 08:47:22;;;;;;;;;;;;;;;;;;2203677;59;2140;-19
2024/04/14 08:49:52;;;;;;;;;;;;;;;;;;2204705;66;1834;-19
2024/04/14 08:52:24;;;;;;;;;;;;;;;;;;2207050;66;2004;-19
2024/04/14 08:54:54;;;;;;;;;;;;;;;;;;2203583;59;1841;-19
2024/04/14 08:57:26;;;;;;;;;;;;;;;;;;2206363;66;1893;-19
2024/04/14 08:59:58;;;;;;;;;;;;;;;;;;2204553;66;1811;-19
2024/04/14 09:02:28;;;;;;;;;;;;;;;;;;2201806;59;1840;-19
2024/04/14 09:04:59;;;;;;;;;;;;;;;;;;2201917;67;2030;-19
2024/04/14 09:07:29;;;;;;;;;;;;;;;;;;2206686;66;1894;-18
2024/04/14 09:09:59;;;;;;;;;;;;;;;;;;2205860;59;2804;-19
2024/04/14 09:12:30;;;;;;;;;;;;;;;;;;2206669;66;2024;-19
2024/04/14 09:15:03;;;;;;;;;;;;;;;;;;2205569;66;2495;-19
2024/04/14 09:17:33;;;;;;;;;;;;;;;;;;2206053;67;1907;-18
2024/04/14 09:20:03;;;;;;;;;;;;;;;;;;2207238;66;1824;-19
2024/04/14 09:22:35;;;;;;;;;;;;;;;;;;2206719;59;1916;-19
2024/04/14 09:25:06;;;;;;;;;;;;;;;;;;2206282;66;2384;-21
2024/04/14 09:27:36;;;;;;;;;;;;;;;;;;2206520;59;2470;-19
2024/04/14 09:30:18;;;;;;;;;;;;;;;;;;2201707;67;1963;-19
2024/04/14 09:32:48;;;;;;;;;;;;;;;;;;2205541;59;1826;-19
2024/04/14 09:35:19;;;;;;;;;;;;;;;;;;2204193;59;2320;-19
2024/04/14 09:37:50;;;;;;;;;;;;;;;;;;2203399;66;1878;-19
2024/04/14 09:40:22;;;;;;;;;;;;;;;;;;2203697;67;1994;-19
2024/04/14 09:42:57;;;;;;;;;;;;;;;;;;2205229;66;1881;-19
2024/04/14 09:45:30;;;;;;;;;;;;;;;;;;2207204;67;1928;-19
2024/04/14 09:48:02;;;;;;;;;;;;;;;;;;2204989;67;1898;-19
2024/04/14 09:50:34;;;;;;;;;;;;;;;;;;2201637;59;2325;-19
2024/04/14 09:53:06;;;;;;;;;;;;;;;;;;2205322;59;1910;-19
2024/04/14 09:55:36;;;;;;;;;;;;;;;;;;2205335;67;1843;-19
2024/04/14 09:58:06;;;;;;;;;;;;;;;;;;2206445;59;2128;-19
2024/04/14 10:00:38;;;;;;;;;;;;;;;;;;2206881;59;1975;-19
2024/04/14 10:03:09;;;;;;;;;;;;;;;;;;2203447;66;1934;-19
2024/04/14 10:05:41;;;;;;;;;;;;;;;;;;2203218;67;1935;-19
2024/04/14 10:08:11;;;;;;;;;;;;;;;;;;2205982;59;1935;-19
2024/04/14 10:10:42;;;;;;;;;;;;;;;;;;2203708;59;1997;-19
2024/04/14 10:13:13;;;;;;;;;;;;;;;;;;2204402;67;2272;-19
2024/04/14 10:15:57;;;;;;;;;;;;;;;;;;2202511;67;1835;-19
2024/04/14 10:18:28;;;;;;;;;;;;;;;;;;2207084;67;1835;-19
2024/04/14 10:21:00;;;;;;;;;;;;;;;;;;2204924;66;2648;-19
2024/04/14 10:23:30;;;;;;;;;;;;;;;;;;2203760;59;2472;-19
2024/04/14 10:26:01;;;;;;;;;;;;;;;;;;2202025;67;2719;-19
2024/04/14 10:28:31;;;;;;;;;;;;;;;;;;2206877;59;3031;-19
2024/04/14 10:31:03;;;;;;;;;;;;;;;;;;2205150;67;2687;-19
2024/04/14 10:33:33;;;;;;;;;;;;;;;;;;2207895;59;1810;-19
2024/04/14 10:36:04;;;;;;;;;;;;;;;;;;2201907;59;2359;-19
2024/04/14 10:38:34;;;;;;;;;;;;;;;;;;2204293;59;2688;-19
2024/04/14 10:41:05;;;;;;;;;;;;;;;;;;2205558;59;2406;-19
2024/04/14 10:43:35;;;;;;;;;;;;;;;;;;2203253;59;1886;-19
2024/04/14 10:46:06;;;;;;;;;;;;;;;;;;2206457;66;1995;-19
2024/04/14 10:48:40;;;;;;;;;;;;;;;;;;2206870;66;1787;-18
2024/04/14 10:51:11;;;;;;;;;;;;;;;;;;2203923;59;1849;-19
2024/04/14 10:53:41;;;;;;;;;;;;;;;;;;2206587;59;1974;-19
2024/04/14 10:56:12;;;;;;;;;;;;;;;;;;2207006;66;1746;-19
2024/04/14 10:58:42;;;;;;;;;;;;;;;;;;2206374;63;1848;-19
2024/04/14 11:01:13;;;;;;;;;;;;;;;;;;2203009;59;1946;-20
2024/04/14 11:03:43;;;;;;;;;;;;;;;;;;2205848;59;1743;-19
2024/04/14 11:06:14;;;;;;;;;;;;;;;;;;2203464;67;1939;-19
2024/04/14 11:08:45;;;;;;;;;;;;;;;;;;2206801;59;2533;-19
2024/04/14 11:11:15;;;;;;;;;;;;;;;;;;2206841;59;1863;-19
2024/04/14 11:13:45;;;;;;;;;;;;;;;;;;2206386;59;2137;-19
2024/04/14 11:16:16;;;;;;;;;;;;;;;;;;2205398;66;2007;-19
2024/04/14 11:18:47;;;;;;;;;;;;;;;;;;2204916;59;2233;-19
2024/04/14 11:21:18;;;;;;;;;;;;;;;;;;2204976;59;2537;-19
2024/04/14 11:23:48;;;;;;;;;;;;;;;;;;2203091;59;2639;-19
2024/04/14 11:26:18;;;;;;;;;;;;;;;;;;2198482;59;2636;-19
2024/04/14 11:28:49;;;;;;;;;;;;;;;;;;2204516;59;2416;-19
2024/04/14 11:31:19;;;;;;;;;;;;;;;;;;2203659;67;2022;-19
2024/04/14 11:33:58;;;;;;;;;;;;;;;;;;2201710;59;2325;-19
2024/04/14 11:36:35;;;;;;;;;;;;;;;;;;2203051;59;2441;-19
2024/04/14 11:39:05;;;;;;;;;;;;;;;;;;2204518;66;2257;-19
2024/04/14 11:41:36;;;;;;;;;;;;;;;;;;2206817;67;1744;-19
2024/04/14 11:44:07;;;;;;;;;;;;;;;;;;2203203;66;2346;-19
2024/04/14 11:46:37;;;;;;;;;;;;;;;;;;2203110;59;2502;-19
2024/04/14 11:49:07;;;;;;;;;;;;;;;;;;2200389;66;1979;-19
2024/04/14 11:51:38;;;;;;;;;;;;;;;;;;2204012;67;1798;-19
2024/04/14 11:54:08;;;;;;;;;;;;;;;;;;2205042;59;1987;-19
2024/04/14 11:56:38;;;;;;;;;;;;;;;;;;2200807;67;1870;-19
2024/04/14 11:59:08;;;;;;;;;;;;;;;;;;2200855;67;1915;-20
2024/04/14 12:01:38;;;;;;;;;;;;;;;;;;2203435;59;2356;-19
2024/04/14 12:04:09;;;;;;;;;;;;;;;;;;2200768;59;1842;-19
2024/04/14 12:06:39;;;;;;;;;;;;;;;;;;2203339;67;2006;-19
2024/04/14 12:09:09;;;;;;;;;;;;;;;;;;2201795;67;1899;-19
2024/04/14 12:11:39;;;;;;;;;;;;;;;;;;2207206;59;1839;-19
2024/04/14 12:14:09;;;;;;;;;;;;;;;;;;2206014;66;1897;-19
2024/04/14 12:16:41;;;;;;;;;;;;;;;;;;2207459;59;1849;-19
2024/04/14 12:19:11;;;;;;;;;;;;;;;;;;2200474;59;2903;-19
2024/04/14 12:21:42;;;;;;;;;;;;;;;;;;2204842;67;1934;-19
2024/04/14 12:24:12;;;;;;;;;;;;;;;;;;2201274;59;1966;-19
2024/04/14 12:26:42;;;;;;;;;;;;;;;;;;2204159;59;2766;-19
2024/04/14 12:29:12;;;;;;;;;;;;;;;;;;2204063;59;1879;-19
2024/04/14 12:31:43;;;;;;;;;;;;;;;;;;2205145;59;2556;-19
2024/04/14 12:34:13;;;;;;;;;;;;;;;;;;2201826;59;2758;-18
2024/04/14 12:36:43;;;;;;;;;;;;;;;;;;2205063;59;2853;-19
2024/04/14 12:39:13;;;;;;;;;;;;;;;;;;2204164;59;2456;-19
2024/04/14 12:41:44;;;;;;;;;;;;;;;;;;2206931;59;1801;-19
2024/04/14 12:44:14;;;;;;;;;;;;;;;;;;2206552;59;2237;-19
2024/04/14 12:46:44;;;;;;;;;;;;;;;;;;2206442;59;2122;-19
2024/04/14 12:49:19;;;;;;;;;;;;;;;;;;2206489;59;3003;-20
2024/04/14 12:51:49;;;;;;;;;;;;;;;;;;2205257;59;1816;-18
2024/04/14 12:54:19;;;;;;;;;;;;;;;;;;2203382;59;2142;-18
2024/04/14 12:56:50;;;;;;;;;;;;;;;;;;2207076;67;2364;-19
2024/04/14 12:59:20;;;;;;;;;;;;;;;;;;2207223;66;1884;-18
2024/04/14 13:01:51;;;;;;;;;;;;;;;;;;2204248;59;2500;-19
2024/04/14 13:04:21;;;;;;;;;;;;;;;;;;2207419;66;1836;-18
2024/04/14 13:06:52;;;;;;;;;;;;;;;;;;2203704;67;2749;-18
2024/04/14 13:09:22;;;;;;;;;;;;;;;;;;2201208;59;1800;-18
2024/04/14 13:11:53;;;;;;;;;;;;;;;;;;2207317;64;2202;-18
2024/04/14 13:14:23;;;;;;;;;;;;;;;;;;2205295;66;1983;-18
2024/04/14 13:16:53;;;;;;;;;;;;;;;;;;2203875;67;2510;-18
2024/04/14 13:19:23;;;;;;;;;;;;;;;;;;2204064;67;2067;-18
2024/04/14 13:21:54;;;;;;;;;;;;;;;;;;2207700;66;2806;-18
2024/04/14 13:24:24;;;;;;;;;;;;;;;;;;2204640;67;1895;-18
2024/04/14 13:26:54;;;;;;;;;;;;;;;;;;2208091;66;2118;-18
2024/04/14 13:29:24;;;;;;;;;;;;;;;;;;2207095;59;2264;-18
2024/04/14 13:31:55;;;;;;;;;;;;;;;;;;2205335;59;1942;-19
2024/04/14 13:34:25;;;;;;;;;;;;;;;;;;2207382;59;2783;-18
2024/04/14 13:36:55;;;;;;;;;;;;;;;;;;2207780;59;1757;-18
2024/04/14 13:39:26;;;;;;;;;;;;;;;;;;2203660;67;2887;-18
2024/04/14 13:41:56;;;;;;;;;;;;;;;;;;2206526;59;2614;-18
2024/04/14 13:44:26;;;;;;;;;;;;;;;;;;2205654;59;2802;-18
2024/04/14 13:46:57;;;;;;;;;;;;;;;;;;2205398;59;3574;-18
2024/04/14 13:49:27;;;;;;;;;;;;;;;;;;2205660;59;2434;-19
2024/04/14 13:51:57;;;;;;;;;;;;;;;;;;2207438;66;1841;-18
2024/04/14 13:54:27;;;;;;;;;;;;;;;;;;2206604;59;2438;-18
2024/04/14 13:56:58;;;;;;;;;;;;;;;;;;2207625;67;2470;-19
2024/04/14 13:59:28;;;;;;;;;;;;;;;;;;2206867;59;2174;-18
2024/04/14 14:01:58;;;;;;;;;;;;;;;;;;2207594;59;1807;-18
2024/04/14 14:04:29;;;;;;;;;;;;;;;;;;2207309;66;1857;-18
2024/04/14 14:06:59;;;;;;;;;;;;;;;;;;2204508;66;1951;-18
2024/04/14 14:09:31;;;;;;;;;;;;;;;;;;2202994;59;2939;-18
2024/04/14 14:12:01;;;;;;;;;;;;;;;;;;2206131;66;1959;-18
2024/04/14 14:14:31;;;;;;;;;;;;;;;;;;2207702;66;2594;-18
2024/04/14 14:17:03;;;;;;;;;;;;;;;;;;2205878;60;2857;-18
2024/04/14 14:19:34;;;;;;;;;;;;;;;;;;2208053;66;1842;-18
2024/04/14 14:22:04;;;;;;;;;;;;;;;;;;2206434;66;1949;-18
2024/04/14 14:24:34;;;;;;;;;;;;;;;;;;2207583;59;1797;-18
2024/04/14 14:27:05;;;;;;;;;;;;;;;;;;2206825;59;2023;-19
2024/04/14 14:29:35;;;;;;;;;;;;;;;;;;2205186;67;2758;-18
2024/04/14 14:32:05;;;;;;;;;;;;;;;;;;2207486;59;1855;-18
2024/04/14 14:37:24;;;;;;;;;;;;;;;;;;2207225;67;1788;-18
2024/04/14 14:39:55;;;;;;;;;;;;;;;;;;2204399;59;1952;-18
2024/04/14 14:42:25;;;;;;;;;;;;;;;;;;2203990;67;1977;-18
2024/04/14 14:44:55;;;;;;;;;;;;;;;;;;2204214;59;2232;-18
2024/04/14 14:47:26;;;;;;;;;;;;;;;;;;2207150;67;2286;-18
2024/04/14 14:49:56;;;;;;;;;;;;;;;;;;2207080;66;1980;-18
2024/04/14 14:52:26;;;;;;;;;;;;;;;;;;2203615;59;1866;-18
2024/04/14 14:54:56;;;;;;;;;;;;;;;;;;2207132;59;1841;-18
2024/04/14 14:57:27;;;;;;;;;;;;;;;;;;2207474;66;3241;-19
2024/04/14 14:59:57;;;;;;;;;;;;;;;;;;2207352;67;1769;-18
2024/04/14 15:02:28;;;;;;;;;;;;;;;;;;2204153;59;2136;-18
2024/04/14 15:04:59;;;;;;;;;;;;;;;;;;2207773;66;2501;-18
2024/04/14 15:07:29;;;;;;;;;;;;;;;;;;2204606;66;2022;-18
2024/04/14 15:09:59;;;;;;;;;;;;;;;;;;2206982;59;2319;-18
2024/04/14 15:12:29;;;;;;;;;;;;;;;;;;2207247;66;1910;-18
2024/04/14 15:14:59;;;;;;;;;;;;;;;;;;2207257;67;1849;-18
2024/04/14 15:17:30;;;;;;;;;;;;;;;;;;2203493;60;1987;-18
2024/04/14 15:20:00;;;;;;;;;;;;;;;;;;2203699;67;1830;-18
2024/04/14 15:22:30;;;;;;;;;;;;;;;;;;2201023;67;1961;-18
2024/04/14 15:25:00;;;;;;;;;;;;;;;;;;2203796;66;2758;-18
2024/04/14 15:27:37;;;;;;;;;;;;;;;;;;2211857;58;2315;-16
2024/04/14 15:30:08;;;;;;;;;;;;;;;;;;2211622;58;2131;-16
2024/04/14 15:32:40;;;;;;;;;;;;;;;;;;2211752;59;2725;-16
2024/04/14 15:35:11;;;;;;;;;;;;;;;;;;2208203;59;1866;-16
2024/04/14 15:37:41;;;;;;;;;;;;;;;;;;2212258;58;1833;-16
2024/04/14 15:40:12;;;;;;;;;;;;;;;;;;2211084;66;1856;-16
2024/04/14 15:42:42;;;;;;;;;;;;;;;;;;2208154;59;2872;-16
2024/04/14 15:45:13;;;;;;;;;;;;;;;;;;2210160;58;2242;-16
2024/04/14 15:47:43;;;;;;;;;;;;;;;;;;2212765;66;1888;-16
2024/04/14 15:50:13;;;;;;;;;;;;;;;;;;2207976;66;2069;-16
2024/04/14 15:52:43;;;;;;;;;;;;;;;;;;2214125;66;1778;-16
2024/04/14 15:55:13;;;;;;;;;;;;;;;;;;2211924;66;1832;-16
2024/04/14 15:57:44;;;;;;;;;;;;;;;;;;2212934;66;1830;-16
2024/04/14 16:00:14;;;;;;;;;;;;;;;;;;2203578;66;1874;-16
2024/04/14 16:02:47;;;;;;;;;;;;;;;;;;2210560;59;1820;-16
2024/04/14 16:05:17;;;;;;;;;;;;;;;;;;2212408;66;2264;-16
2024/04/14 16:07:49;;;;;;;;;;;;;;;;;;2210120;59;2490;-16
2024/04/14 16:10:19;;;;;;;;;;;;;;;;;;2210077;66;2224;-16
2024/04/14 16:12:49;;;;;;;;;;;;;;;;;;2213654;66;1774;-16
2024/04/14 16:15:20;;;;;;;;;;;;;;;;;;2206752;66;1971;-16
2024/04/14 16:17:50;;;;;;;;;;;;;;;;;;2213648;66;1816;-15
2024/04/14 16:20:20;;;;;;;;;;;;;;;;;;2210254;66;1964;-16
2024/04/14 16:22:50;;;;;;;;;;;;;;;;;;2211332;66;2406;-16
2024/04/14 16:25:21;;;;;;;;;;;;;;;;;;2209175;58;2118;-16
2024/04/14 16:27:51;;;;;;;;;;;;;;;;;;2211949;58;2391;-16
2024/04/14 16:30:22;;;;;;;;;;;;;;;;;;2211071;66;1904;-16
2024/04/14 16:32:53;;;;;;;;;;;;;;;;;;2209408;58;2349;-17
2024/04/14 16:35:23;;;;;;;;;;;;;;;;;;2210313;58;3000;-16
2024/04/14 16:37:53;;;;;;;;;;;;;;;;;;2206090;66;2035;-16
2024/04/14 16:40:23;;;;;;;;;;;;;;;;;;2203747;66;2494;-16
2024/04/14 16:42:53;;;;;;;;;;;;;;;;;;2205075;66;1869;-15
2024/04/14 16:45:24;;;;;;;;;;;;;;;;;;2203943;66;1982;-16
2024/04/14 16:47:54;;;;;;;;;;;;;;;;;;2207103;66;1977;-15
2024/04/14 16:50:24;;;;;;;;;;;;;;;;;;2205271;66;1867;-16
2024/04/14 16:52:54;;;;;;;;;;;;;;;;;;2205205;66;1908;-16
2024/04/14 16:55:25;;;;;;;;;;;;;;;;;;2207533;59;2637;-16
2024/04/14 16:57:55;;;;;;;;;;;;;;;;;;2208671;66;1732;-16
2024/04/14 17:00:29;;;;;;;;;;;;;;;;;;2207718;66;1987;-16
2024/04/14 17:03:00;;;;;;;;;;;;;;;;;;2205827;59;2214;-16
2024/04/14 17:05:30;;;;;;;;;;;;;;;;;;2208377;66;1941;-16
2024/04/14 17:08:00;;;;;;;;;;;;;;;;;;2209891;66;2450;-16
2024/04/14 17:10:31;;;;;;;;;;;;;;;;;;2207365;66;2088;-15
2024/04/14 17:13:01;;;;;;;;;;;;;;;;;;2207080;66;1818;-16
2024/04/14 17:15:31;;;;;;;;;;;;;;;;;;2209143;66;1821;-15
2024/04/14 17:18:02;;;;;;;;;;;;;;;;;;2205866;66;1998;-15
2024/04/14 17:20:33;;;;;;;;;;;;;;;;;;2207378;66;1856;-15
2024/04/14 17:23:04;;;;;;;;;;;;;;;;;;2209453;59;1844;-16
2024/04/14 17:25:34;;;;;;;;;;;;;;;;;;2203508;59;2241;-15
2024/04/14 17:28:04;;;;;;;;;;;;;;;;;;2207894;58;2359;-15